createdAt,value
2022-11-24T00:01:53.007Z,73.16
2022-11-24T00:04:22.352Z,73.08
2022-11-24T00:06:51.407Z,72.90
2022-11-24T00:09:20.381Z,72.82
2022-11-24T00:11:49.568Z,72.74
2022-11-24T00:14:19.973Z,72.78
2022-11-24T00:16:49.981Z,72.82
2022-11-24T00:19:19.852Z,72.91
2022-11-24T00:21:49.158Z,72.99
2022-11-24T00:24:19.039Z,72.95
2022-11-24T00:26:48.167Z,72.78
2022-11-24T00:29:17.099Z,72.77
2022-11-24T00:31:46.090Z,72.64
2022-11-24T00:34:15.461Z,72.59
2022-11-24T00:36:44.292Z,72.66
2022-11-24T00:39:16.445Z,72.70
2022-11-24T00:41:45.561Z,72.76
2022-11-24T00:44:14.558Z,72.84
2022-11-24T00:46:43.798Z,72.91
2022-11-24T00:49:13.173Z,72.94
2022-11-24T00:51:42.323Z,72.91
2022-11-24T00:54:11.197Z,72.94
2022-11-24T00:56:40.253Z,72.85
2022-11-24T00:59:10.370Z,72.79
2022-11-24T01:01:39.448Z,72.75
2022-11-24T01:04:08.514Z,72.69
2022-11-24T01:06:37.379Z,72.69
2022-11-24T01:09:06.633Z,72.69
2022-11-24T01:11:55.156Z,72.78
2022-11-24T01:14:25.626Z,72.85
2022-11-24T01:16:55.646Z,72.78
2022-11-24T01:19:25.073Z,72.73
2022-11-24T01:21:54.035Z,72.75
2022-11-24T01:24:23.088Z,72.69
2022-11-24T01:26:51.981Z,72.68
2022-11-24T01:29:20.859Z,72.64
2022-11-24T01:31:49.988Z,72.56
2022-11-24T01:34:19.432Z,72.52
2022-11-24T01:36:48.903Z,72.44
2022-11-24T01:39:17.757Z,72.48
2022-11-24T01:41:46.851Z,72.32
2022-11-24T01:44:29.484Z,72.34
2022-11-24T01:47:05.547Z,72.39
2022-11-24T01:49:59.178Z,72.65
2022-11-24T01:52:38.441Z,72.67
2022-11-24T01:55:18.416Z,72.63
2022-11-24T01:58:15.876Z,72.49
2022-11-24T02:00:46.087Z,72.55
2022-11-24T02:03:20.923Z,72.64
2022-11-24T02:06:06.520Z,72.57
2022-11-24T02:08:47.618Z,72.50
2022-11-24T02:11:16.864Z,72.56
2022-11-24T02:13:47.910Z,72.47
2022-11-24T02:16:16.965Z,72.52
2022-11-24T02:18:46.862Z,72.60
2022-11-24T02:21:16.941Z,72.58
2022-11-24T02:24:05.962Z,72.41
2022-11-24T02:26:43.232Z,72.39
2022-11-24T02:29:14.608Z,72.42
2022-11-24T02:31:59.426Z,72.49
2022-11-24T02:34:28.289Z,72.54
2022-11-24T02:36:57.266Z,72.62
2022-11-24T02:39:26.289Z,72.52
2022-11-24T02:42:03.655Z,72.60
2022-11-24T02:44:41.673Z,72.58
2022-11-24T02:47:13.632Z,72.34
2022-11-24T02:49:42.750Z,72.44
2022-11-24T02:52:11.800Z,72.39
2022-11-24T02:54:40.804Z,72.40
2022-11-24T02:57:11.241Z,72.56
2022-11-24T02:59:40.336Z,72.63
2022-11-24T03:02:10.659Z,72.60
2022-11-24T03:04:39.633Z,72.63
2022-11-24T03:07:08.622Z,72.64
2022-11-24T03:09:37.627Z,72.55
2022-11-24T03:12:07.734Z,72.51
2022-11-24T03:14:36.949Z,72.55
2022-11-24T03:17:06.136Z,72.54
2022-11-24T03:19:35.070Z,72.59
2022-11-24T03:22:04.196Z,72.68
2022-11-24T03:24:33.237Z,72.68
2022-11-24T03:27:02.410Z,72.61
2022-11-24T03:29:31.903Z,72.57
2022-11-24T03:32:01.097Z,72.65
2022-11-24T03:34:30.044Z,72.66
2022-11-24T03:36:58.986Z,72.72
2022-11-24T03:39:29.005Z,72.83
2022-11-24T03:41:57.887Z,72.84
2022-11-24T03:44:26.845Z,72.70
2022-11-24T03:46:55.783Z,72.70
2022-11-24T03:49:24.768Z,72.68
2022-11-24T03:51:53.652Z,72.72
2022-11-24T03:54:22.650Z,72.79
2022-11-24T03:56:51.587Z,72.77
2022-11-24T03:59:20.558Z,72.77
2022-11-24T04:01:49.530Z,72.82
2022-11-24T04:04:18.505Z,72.74
2022-11-24T04:06:47.416Z,72.71
2022-11-24T04:09:16.595Z,72.68
2022-11-24T04:12:04.430Z,72.71
2022-11-24T04:14:33.552Z,72.57
2022-11-24T04:17:04.432Z,72.43
2022-11-24T04:19:33.363Z,72.54
2022-11-24T04:22:02.316Z,72.62
2022-11-24T04:24:31.565Z,72.53
2022-11-24T04:27:00.738Z,72.47
2022-11-24T04:29:29.839Z,72.54
2022-11-24T04:31:58.698Z,72.67
2022-11-24T04:34:27.715Z,72.70
2022-11-24T04:36:56.584Z,72.68
2022-11-24T04:39:28.289Z,72.76
2022-11-24T04:41:57.873Z,72.67
2022-11-24T04:44:26.872Z,72.77
2022-11-24T04:46:55.906Z,72.84
2022-11-24T04:49:24.945Z,72.90
2022-11-24T04:51:53.847Z,73.08
2022-11-24T04:54:23.484Z,73.03
2022-11-24T04:56:53.626Z,73.05
2022-11-24T04:59:22.504Z,73.04
2022-11-24T05:01:51.462Z,73.08
2022-11-24T05:04:21.643Z,73.18
2022-11-24T05:06:50.612Z,73.05
2022-11-24T05:09:19.543Z,73.03
2022-11-24T05:11:48.534Z,73.15
2022-11-24T05:14:17.447Z,73.22
2022-11-24T05:16:46.662Z,73.15
2022-11-24T05:19:15.755Z,73.05
2022-11-24T05:21:44.709Z,73.03
2022-11-24T05:24:14.754Z,73.00
2022-11-24T05:26:43.729Z,72.97
2022-11-24T05:29:12.939Z,72.98
2022-11-24T05:31:41.944Z,73.03
2022-11-24T05:34:11.261Z,73.20
2022-11-24T05:36:56.349Z,73.20
2022-11-24T05:39:25.373Z,73.25
2022-11-24T05:41:54.399Z,73.24
2022-11-24T05:44:23.298Z,73.25
2022-11-24T05:46:52.332Z,73.13
2022-11-24T05:49:21.347Z,73.09
2022-11-24T05:51:50.239Z,73.24
2022-11-24T05:54:19.228Z,73.22
2022-11-24T05:56:48.345Z,73.21
2022-11-24T05:59:17.211Z,73.09
2022-11-24T06:01:46.195Z,73.10
2022-11-24T06:04:15.429Z,73.02
2022-11-24T06:06:44.306Z,72.97
2022-11-24T06:09:13.942Z,72.93
2022-11-24T06:11:43.363Z,72.88
2022-11-24T06:14:12.186Z,72.74
2022-11-24T06:16:41.305Z,72.85
2022-11-24T06:19:11.663Z,72.84
2022-11-24T06:21:40.481Z,72.68
2022-11-24T06:24:09.425Z,72.67
2022-11-24T06:26:38.288Z,72.74
2022-11-24T06:29:07.580Z,72.66
2022-11-24T06:31:37.076Z,72.63
2022-11-24T06:34:08.482Z,72.72
2022-11-24T06:36:38.940Z,72.80
2022-11-24T06:39:07.955Z,72.67
2022-11-24T06:41:36.916Z,72.69
2022-11-24T06:44:08.745Z,72.84
2022-11-24T06:46:37.740Z,72.92
2022-11-24T06:49:06.729Z,72.84
2022-11-24T06:51:35.785Z,72.79
2022-11-24T06:54:08.907Z,72.80
2022-11-24T06:56:37.820Z,72.84
2022-11-24T06:59:06.692Z,72.81
2022-11-24T07:01:35.833Z,72.78
2022-11-24T07:04:04.882Z,72.76
2022-11-24T07:06:33.757Z,72.77
2022-11-24T07:09:03.141Z,72.73
2022-11-24T07:11:32.056Z,72.75
2022-11-24T07:14:00.964Z,72.71
2022-11-24T07:16:30.757Z,72.63
2022-11-24T07:19:01.046Z,72.64
2022-11-24T07:21:31.022Z,72.72
2022-11-24T07:23:59.979Z,72.75
2022-11-24T07:26:29.057Z,72.77
2022-11-24T07:28:57.829Z,72.65
2022-11-24T07:31:26.795Z,72.72
2022-11-24T07:33:56.038Z,72.79
2022-11-24T07:36:25.956Z,72.73
2022-11-24T07:38:54.868Z,72.69
2022-11-24T07:41:23.767Z,72.68
2022-11-24T07:43:53.164Z,72.73
2022-11-24T07:46:22.125Z,72.83
2022-11-24T07:48:51.116Z,72.85
2022-11-24T07:51:19.989Z,72.68
2022-11-24T07:53:48.938Z,72.64
2022-11-24T07:56:17.754Z,72.58
2022-11-24T07:58:51.390Z,72.59
2022-11-24T08:01:21.845Z,72.50
2022-11-24T08:03:50.829Z,72.49
2022-11-24T08:06:27.340Z,72.50
2022-11-24T08:08:58.521Z,72.53
2022-11-24T08:11:28.140Z,72.37
2022-11-24T08:13:57.495Z,72.43
2022-11-24T08:16:26.372Z,72.51
2022-11-24T08:18:56.352Z,72.39
2022-11-24T08:21:26.070Z,72.35
2022-11-24T08:23:56.852Z,72.44
2022-11-24T08:26:26.404Z,72.34
2022-11-24T08:28:59.651Z,72.45
2022-11-24T08:31:36.309Z,72.40
2022-11-24T08:34:06.286Z,72.22
2022-11-24T08:36:35.183Z,72.29
2022-11-24T08:39:04.206Z,72.18
2022-11-24T08:41:33.437Z,72.14
2022-11-24T08:44:02.295Z,72.16
2022-11-24T08:46:31.369Z,72.30
2022-11-24T08:49:00.363Z,72.39
2022-11-24T08:51:29.877Z,72.36
2022-11-24T08:54:01.705Z,72.20
2022-11-24T08:56:34.372Z,72.20
2022-11-24T08:59:03.388Z,72.01
2022-11-24T09:01:32.528Z,72.11
2022-11-24T09:04:01.693Z,72.10
2022-11-24T09:06:31.099Z,71.89
2022-11-24T09:09:00.542Z,71.76
2022-11-24T09:11:30.792Z,71.72
2022-11-24T09:13:59.628Z,71.51
2022-11-24T09:16:29.469Z,71.40
2022-11-24T09:19:02.246Z,71.35
2022-11-24T09:21:34.539Z,71.22
2022-11-24T09:24:04.264Z,71.22
2022-11-24T09:26:36.985Z,71.28
2022-11-24T09:29:08.181Z,71.22
2022-11-24T09:31:39.343Z,71.24
2022-11-24T09:34:13.105Z,71.18
2022-11-24T09:36:43.062Z,71.03
2022-11-24T09:39:12.305Z,71.20
2022-11-24T09:42:20.511Z,70.93
2022-11-24T09:45:22.784Z,70.93
2022-11-24T09:48:11.156Z,70.86
2022-11-24T09:50:40.121Z,70.77
2022-11-24T09:53:34.778Z,70.63
2022-11-24T09:56:34.646Z,70.45
2022-11-24T09:59:25.213Z,70.36
2022-11-24T10:01:55.855Z,70.21
2022-11-24T10:04:39.436Z,69.96
2022-11-24T10:07:45.229Z,69.69
2022-11-24T10:10:41.004Z,69.49
2022-11-24T10:13:34.915Z,69.24
2022-11-24T10:16:21.747Z,69.28
2022-11-24T10:19:02.716Z,69.38
2022-11-24T10:21:40.757Z,69.36
2022-11-24T10:24:51.561Z,69.24
2022-11-24T10:27:30.514Z,69.03
2022-11-24T10:30:01.204Z,69.01
2022-11-24T10:32:41.028Z,68.99
2022-11-24T10:35:22.535Z,69.10
2022-11-24T10:38:34.863Z,69.01
2022-11-24T10:41:11.856Z,68.80
2022-11-24T10:43:42.975Z,68.69
2022-11-24T10:46:19.123Z,68.69
2022-11-24T10:48:58.488Z,68.50
2022-11-24T10:51:53.192Z,68.34
2022-11-24T10:54:24.159Z,68.22
2022-11-24T10:56:55.078Z,68.34
2022-11-24T10:59:33.355Z,68.23
2022-11-24T11:02:23.639Z,68.11
2022-11-24T11:04:52.503Z,68.23
2022-11-24T11:07:33.683Z,68.19
2022-11-24T11:10:23.515Z,68.17
2022-11-24T11:12:54.219Z,68.17
2022-11-24T11:15:31.623Z,68.16
2022-11-24T11:18:05.313Z,68.06
2022-11-24T11:20:47.881Z,67.96
2022-11-24T11:23:30.965Z,67.73
2022-11-24T11:26:40.133Z,67.69
2022-11-24T11:35:31.557Z,67.70
2022-11-24T11:38:08.320Z,67.69
2022-11-24T11:40:38.063Z,67.71
2022-11-24T11:43:35.934Z,67.69
2022-11-24T11:46:13.781Z,67.64
2022-11-24T11:48:59.867Z,67.67
2022-11-24T11:51:59.145Z,67.72
2022-11-24T11:55:08.472Z,67.71
2022-11-24T11:58:54.670Z,67.77
2022-11-24T12:02:18.142Z,67.67
2022-11-24T12:04:57.582Z,67.60
2022-11-24T12:08:20.701Z,67.62
2022-11-24T12:11:12.023Z,67.64
2022-11-24T12:13:53.225Z,67.50
2022-11-24T12:16:59.813Z,67.38
2022-11-24T12:19:47.204Z,67.36
2022-11-24T12:22:53.226Z,67.31
2022-11-24T12:25:35.919Z,67.36
2022-11-24T12:28:22.380Z,67.26
2022-11-24T12:31:38.795Z,67.11
2022-11-24T12:34:21.071Z,66.94
2022-11-24T12:36:53.067Z,67.08
2022-11-24T12:39:38.092Z,67.31
2022-11-24T12:42:12.554Z,67.36
2022-11-24T12:44:46.007Z,67.36
2022-11-24T12:47:41.552Z,67.42
2022-11-24T12:50:28.558Z,67.49
2022-11-24T12:53:15.483Z,67.48
2022-11-24T12:55:47.293Z,67.52
2022-11-24T12:58:46.610Z,67.51
2022-11-24T13:01:38.704Z,67.47
2022-11-24T13:04:29.602Z,67.37
2022-11-24T13:07:38.137Z,67.40
2022-11-24T13:10:55.207Z,67.39
2022-11-24T13:13:25.048Z,67.49
2022-11-24T13:19:13.622Z,67.50
2022-11-24T13:21:47.292Z,67.42
2022-11-24T13:24:26.060Z,67.35
2022-11-24T13:27:23.217Z,67.36
2022-11-24T13:30:38.493Z,67.40
2022-11-24T13:33:16.550Z,67.45
2022-11-24T13:36:09.349Z,67.40
2022-11-24T13:38:53.795Z,67.38
2022-11-24T13:41:32.568Z,67.59
2022-11-24T13:44:17.753Z,67.50
2022-11-24T13:47:24.528Z,67.54
2022-11-24T13:49:53.921Z,67.76
2022-11-24T13:52:41.033Z,67.87
2022-11-24T13:55:13.609Z,67.83
2022-11-24T13:57:59.721Z,67.76
2022-11-24T14:00:44.135Z,67.74
2022-11-24T14:03:28.123Z,67.85
2022-11-24T14:06:06.061Z,68.14
2022-11-24T14:08:38.523Z,68.30
2022-11-24T14:11:25.911Z,68.41
2022-11-24T14:14:24.625Z,68.46
2022-11-24T14:17:15.639Z,68.36
2022-11-24T14:19:51.394Z,68.43
2022-11-24T14:22:43.720Z,68.57
2022-11-24T14:25:48.679Z,68.62
2022-11-24T14:28:29.262Z,68.57
2022-11-24T14:31:10.276Z,68.63
2022-11-24T14:33:43.067Z,68.71
2022-11-24T14:36:19.676Z,68.80
2022-11-24T14:38:55.884Z,68.87
2022-11-24T14:41:34.356Z,68.91
2022-11-24T14:44:27.820Z,68.94
2022-11-24T14:47:19.861Z,69.02
2022-11-24T14:49:57.560Z,69.09
2022-11-24T14:52:28.887Z,69.17
2022-11-24T14:55:21.339Z,69.29
2022-11-24T14:57:53.889Z,69.29
2022-11-24T15:00:37.294Z,69.27
2022-11-24T15:03:25.426Z,69.24
2022-11-24T15:06:04.918Z,69.30
2022-11-24T15:08:53.624Z,69.27
2022-11-24T15:11:25.320Z,69.30
2022-11-24T15:13:58.323Z,69.35
2022-11-24T15:16:33.654Z,69.45
2022-11-24T15:19:06.272Z,69.48
2022-11-24T15:21:37.886Z,69.39
2022-11-24T15:24:20.460Z,69.43
2022-11-24T15:27:09.702Z,69.45
2022-11-24T15:29:41.779Z,69.57
2022-11-24T15:32:19.730Z,69.53
2022-11-24T15:34:50.716Z,69.60
2022-11-24T15:37:19.850Z,69.63
2022-11-24T15:39:49.070Z,69.54
2022-11-24T15:42:18.169Z,69.54
2022-11-24T15:44:48.526Z,69.57
2022-11-24T15:47:17.785Z,69.56
2022-11-24T15:49:50.086Z,69.57
2022-11-24T15:52:20.788Z,69.54
2022-11-24T15:54:56.637Z,69.84
2022-11-24T15:57:30.306Z,69.88
2022-11-24T16:00:01.726Z,69.91
2022-11-24T16:02:41.227Z,69.95
2022-11-24T16:05:12.276Z,69.99
2022-11-24T16:07:41.858Z,69.97
2022-11-24T16:10:29.316Z,69.87
2022-11-24T16:13:03.030Z,69.90
2022-11-24T16:15:32.140Z,70.07
2022-11-24T16:18:01.954Z,70.01
2022-11-24T16:20:44.981Z,70.01
2022-11-24T16:23:17.363Z,70.03
2022-11-24T16:25:49.214Z,69.96
2022-11-24T16:28:18.517Z,69.97
2022-11-24T16:30:50.963Z,69.98
2022-11-24T16:33:20.077Z,70.10
2022-11-24T16:35:50.111Z,70.10
2022-11-24T16:38:20.212Z,70.08
2022-11-24T16:40:54.449Z,70.07
2022-11-24T16:43:26.291Z,70.01
2022-11-24T16:46:18.991Z,70.06
2022-11-24T16:48:55.915Z,70.11
2022-11-24T16:51:40.748Z,70.19
2022-11-24T16:54:10.002Z,70.08
2022-11-24T16:59:51.692Z,70.17
2022-11-24T17:02:20.885Z,70.14
2022-11-24T17:04:52.590Z,70.13
2022-11-24T17:07:24.314Z,70.14
2022-11-24T17:09:56.911Z,70.10
2022-11-24T17:12:26.516Z,70.08
2022-11-24T17:15:24.622Z,70.04
2022-11-24T17:18:08.290Z,70.08
2022-11-24T17:20:36.305Z,70.27
2022-11-24T17:23:05.728Z,70.14
2022-11-24T17:25:51.075Z,70.08
2022-11-24T17:28:23.572Z,70.17
2022-11-24T17:31:24.716Z,70.14
2022-11-24T17:33:58.471Z,70.28
2022-11-24T17:36:29.771Z,70.25
2022-11-24T17:39:00.542Z,70.25
2022-11-24T17:41:34.972Z,70.34
2022-11-24T17:44:04.502Z,70.39
2022-11-24T17:46:37.303Z,70.38
2022-11-24T17:49:13.383Z,70.46
2022-11-24T17:51:42.763Z,70.40
2022-11-24T17:54:56.892Z,70.37
2022-11-24T17:57:04.371Z,70.31
2022-11-24T17:59:38.289Z,70.16
2022-11-24T18:02:21.404Z,70.25
2022-11-24T18:05:09.340Z,70.28
2022-11-24T18:07:43.295Z,70.28
2022-11-24T18:10:14.856Z,70.32
2022-11-24T18:12:44.053Z,70.32
2022-11-24T18:15:15.435Z,70.35
2022-11-24T18:17:47.384Z,70.41
2022-11-24T18:20:16.987Z,70.68
2022-11-24T18:25:41.784Z,70.72
2022-11-24T18:28:11.142Z,70.68
2022-11-24T18:30:42.906Z,70.57
2022-11-24T18:33:15.888Z,70.43
2022-11-24T18:36:01.800Z,70.48
2022-11-24T18:38:37.434Z,70.54
2022-11-24T18:41:17.909Z,70.57
2022-11-24T18:43:47.604Z,70.55
2022-11-24T18:46:18.265Z,70.55
2022-11-24T18:48:58.030Z,70.57
2022-11-24T18:51:30.224Z,70.68
2022-11-24T18:54:02.487Z,70.68
2022-11-24T18:56:32.160Z,70.64
2022-11-24T18:59:06.111Z,70.78
2022-11-24T19:01:35.416Z,70.63
2022-11-24T19:04:04.937Z,70.64
2022-11-24T19:06:37.119Z,70.64
2022-11-24T19:09:08.655Z,70.64
2022-11-24T19:11:46.782Z,70.73
2022-11-24T19:14:19.616Z,70.87
2022-11-24T19:16:50.737Z,70.84
2022-11-24T19:19:24.453Z,70.87
2022-11-24T19:21:56.198Z,70.90
2022-11-24T19:24:26.570Z,70.81
2022-11-24T19:26:57.098Z,70.82
2022-11-24T19:29:28.752Z,70.68
2022-11-24T19:31:58.331Z,70.60
2022-11-24T19:34:28.647Z,70.44
2022-11-24T19:37:00.105Z,70.56
2022-11-24T19:39:32.176Z,70.61
2022-11-24T19:42:04.955Z,70.73
2022-11-24T19:44:37.450Z,70.71
2022-11-24T19:47:08.972Z,70.76
2022-11-24T19:49:41.247Z,70.75
2022-11-24T19:52:10.739Z,70.78
2022-11-24T19:54:42.808Z,70.74
2022-11-24T19:57:11.909Z,70.75
2022-11-24T19:59:41.162Z,71.01
2022-11-24T20:02:17.705Z,70.98
2022-11-24T20:04:46.922Z,70.97
2022-11-24T20:07:16.179Z,70.94
2022-11-24T20:09:45.193Z,70.92
2022-11-24T20:12:23.299Z,70.90
2022-11-24T20:14:52.571Z,70.97
2022-11-24T20:17:21.866Z,71.00
2022-11-24T20:19:59.680Z,70.97
2022-11-24T20:22:32.339Z,70.99
2022-11-24T20:25:01.843Z,70.81
2022-11-24T20:27:31.159Z,70.82
2022-11-24T20:30:01.537Z,70.80
2022-11-24T20:32:33.032Z,70.79
2022-11-24T20:35:02.581Z,70.88
2022-11-24T20:37:32.344Z,70.78
2022-11-24T20:40:06.279Z,70.74
2022-11-24T20:42:37.509Z,70.71
2022-11-24T20:45:07.344Z,70.74
2022-11-24T20:47:38.570Z,70.77
2022-11-24T20:50:13.604Z,70.80
2022-11-24T20:52:44.936Z,70.88
2022-11-24T20:55:17.621Z,71.00
2022-11-24T20:57:50.563Z,70.99
2022-11-24T21:00:20.437Z,71.04
2022-11-24T21:02:52.880Z,71.05
2022-11-24T21:05:25.502Z,70.95
2022-11-24T21:07:54.947Z,70.93
2022-11-24T21:10:28.152Z,71.04
2022-11-24T21:12:58.396Z,71.04
2022-11-24T21:15:29.570Z,70.94
2022-11-24T21:18:33.033Z,70.97
2022-11-24T21:21:06.166Z,70.98
2022-11-24T21:23:37.527Z,70.96
2022-11-24T21:26:14.900Z,70.93
2022-11-24T21:28:52.814Z,71.04
2022-11-24T21:31:23.267Z,71.05
2022-11-24T21:33:55.536Z,70.86
2022-11-24T21:36:37.310Z,70.82
2022-11-24T21:39:14.860Z,70.80
2022-11-24T21:41:50.590Z,70.76
2022-11-24T21:44:19.791Z,70.86
2022-11-24T21:46:54.370Z,70.81
2022-11-24T21:49:25.161Z,70.87
2022-11-24T21:51:56.134Z,70.91
2022-11-24T21:54:34.492Z,70.74
2022-11-24T21:57:04.214Z,70.91
2022-11-24T21:59:33.488Z,70.98
2022-11-24T22:02:02.828Z,70.95
2022-11-24T22:04:35.505Z,70.95
2022-11-24T22:07:09.850Z,70.98
2022-11-24T22:09:43.509Z,70.85
2022-11-24T22:12:18.830Z,70.86
2022-11-24T22:16:26.024Z,70.86
2022-11-24T22:19:00.252Z,70.84
2022-11-24T22:21:33.806Z,70.78
2022-11-24T22:24:03.147Z,70.87
2022-11-24T22:26:34.520Z,70.74
2022-11-24T22:29:04.646Z,70.81
2022-11-24T22:31:37.047Z,70.98
2022-11-24T22:34:08.610Z,70.92
2022-11-24T22:36:39.163Z,70.85
2022-11-24T22:39:16.618Z,70.98
2022-11-24T22:41:45.742Z,71.15
2022-11-24T22:44:14.782Z,71.24
2022-11-24T22:46:46.074Z,71.25
2022-11-24T22:49:15.193Z,71.27
2022-11-24T22:51:45.819Z,71.21
2022-11-24T22:54:15.061Z,71.15
2022-11-24T22:56:54.106Z,71.16
2022-11-24T22:59:24.575Z,71.20
2022-11-24T23:01:53.490Z,71.30
2022-11-24T23:04:22.557Z,71.38
2022-11-24T23:06:51.824Z,71.36
2022-11-24T23:09:21.525Z,71.39
2022-11-24T23:11:50.571Z,71.57
2022-11-24T23:14:19.614Z,71.51
2022-11-24T23:16:48.876Z,71.49
2022-11-24T23:19:18.070Z,71.47
2022-11-24T23:21:49.253Z,71.61
2022-11-24T23:24:18.279Z,71.65
2022-11-24T23:26:47.459Z,71.62
2022-11-24T23:29:16.495Z,71.62
2022-11-24T23:31:46.139Z,71.74
2022-11-24T23:34:17.839Z,71.85
2022-11-24T23:36:46.889Z,71.94
2022-11-24T23:39:15.975Z,72.02
2022-11-24T23:41:45.026Z,72.10
2022-11-24T23:44:14.080Z,72.11
2022-11-24T23:46:44.090Z,72.19
2022-11-24T23:49:13.260Z,72.28
2022-11-24T23:51:42.362Z,72.34
2022-11-24T23:54:11.586Z,72.49
2022-11-24T23:56:43.179Z,72.57
2022-11-24T23:59:12.645Z,72.53
